createdAt,value
2023-02-05T00:03:49.470Z,102434.06
2023-02-05T00:13:50.683Z,102431.56
2023-02-05T00:23:51.941Z,102422.41
2023-02-05T00:33:53.137Z,102424.94
2023-02-05T00:43:54.364Z,102419.91
2023-02-05T00:53:55.681Z,102423.69
2023-02-05T01:03:57.038Z,102428.22
2023-02-05T01:13:58.328Z,102418.00
2023-02-05T01:24:01.551Z,102407.81
2023-02-05T01:34:02.755Z,102389.22
2023-02-05T01:44:04.030Z,102366.06
2023-02-05T01:54:05.231Z,102357.25
2023-02-05T02:04:06.428Z,102355.06
2023-02-05T02:14:07.686Z,102352.50
2023-02-05T02:24:08.909Z,102337.66
2023-02-05T02:34:10.133Z,102314.19
2023-02-05T02:44:11.364Z,102308.75
2023-02-05T02:54:12.592Z,102323.66
2023-02-05T03:04:14.095Z,102321.06
2023-02-05T03:14:15.299Z,102312.94
2023-02-05T03:24:16.537Z,102308.03
2023-02-05T03:34:17.768Z,102279.56
2023-02-05T03:44:19.052Z,102271.44
2023-02-05T03:54:20.276Z,102267.00
2023-02-05T04:04:21.502Z,102273.00
2023-02-05T04:14:22.728Z,102274.25
2023-02-05T04:24:25.165Z,102286.50
2023-02-05T04:34:26.388Z,102295.50
2023-02-05T04:44:27.624Z,102309.13
2023-02-05T04:54:28.936Z,102310.56
2023-02-05T05:04:30.150Z,102303.34
2023-02-05T05:14:31.385Z,102281.09
2023-02-05T05:24:32.616Z,102272.44
2023-02-05T05:34:33.873Z,102279.75
2023-02-05T05:44:35.096Z,102262.03
2023-02-05T05:54:36.299Z,102268.41
2023-02-05T06:04:37.491Z,102271.44
2023-02-05T06:14:38.729Z,102279.50
2023-02-05T06:24:40.232Z,102277.69
2023-02-05T06:34:41.466Z,102274.66
2023-02-05T06:44:42.701Z,102289.06
2023-02-05T06:54:44.666Z,102281.59
2023-02-05T07:04:45.882Z,102262.28
2023-02-05T07:14:47.148Z,102249.84
2023-02-05T07:24:48.347Z,102254.09
2023-02-05T07:34:49.528Z,102263.81
2023-02-05T07:44:50.754Z,102276.91
2023-02-05T07:54:52.015Z,102269.34
2023-02-05T08:04:53.261Z,102259.28
2023-02-05T08:14:54.890Z,102235.22
2023-02-05T08:24:56.132Z,102230.78
2023-02-05T08:34:58.748Z,102244.63
2023-02-05T08:45:00.829Z,102232.06
2023-02-05T08:55:02.046Z,102221.09
2023-02-05T09:05:08.791Z,102203.25
2023-02-05T09:15:10.777Z,102187.34
2023-02-05T09:25:12.128Z,102183.28
2023-02-05T09:35:13.351Z,102184.34
2023-02-05T09:45:14.585Z,102166.19
2023-02-05T10:27:27.962Z,102151.78
2023-02-05T10:37:29.231Z,102145.91
2023-02-05T10:47:30.527Z,102137.09
2023-02-05T10:57:31.794Z,102126.06
2023-02-05T11:07:33.129Z,102099.31
2023-02-05T11:17:34.542Z,102099.41
2023-02-05T11:27:35.853Z,102092.78
2023-02-05T11:37:37.158Z,102097.44
2023-02-05T11:47:38.424Z,102088.44
2023-02-05T11:57:41.745Z,102084.22
2023-02-05T12:07:43.065Z,102079.84
2023-02-05T12:17:45.395Z,102081.63
2023-02-05T12:48:40.252Z,102017.88
2023-02-05T12:58:41.542Z,102015.25
2023-02-05T13:08:42.807Z,101996.53
2023-02-05T14:00:25.775Z,101988.75
2023-02-05T14:10:27.096Z,101990.34
2023-02-05T14:20:28.345Z,101979.97
2023-02-05T14:30:37.559Z,101981.84
2023-02-05T14:40:38.896Z,101985.44
2023-02-05T14:50:40.221Z,101997.25
2023-02-05T15:00:44.613Z,102005.44
2023-02-05T15:10:45.950Z,102017.69
2023-02-05T15:20:47.411Z,102012.06
2023-02-05T15:30:48.782Z,102016.63
2023-02-05T15:40:50.133Z,102036.09
2023-02-05T15:50:58.615Z,102039.31
2023-02-05T16:00:59.901Z,102046.91
2023-02-05T16:11:05.973Z,102058.25
2023-02-05T16:21:07.282Z,102068.47
2023-02-05T16:31:08.721Z,102071.19
2023-02-05T16:41:10.026Z,102098.88
2023-02-05T16:51:11.453Z,102103.28
2023-02-05T17:01:12.779Z,102128.09
2023-02-05T17:11:14.082Z,102142.56
2023-02-05T17:21:15.339Z,102161.56
2023-02-05T17:31:17.851Z,102169.44
2023-02-05T17:41:37.704Z,102165.22
2023-02-05T17:51:41.721Z,102182.53
2023-02-05T18:01:43.451Z,102189.16
2023-02-05T18:11:44.742Z,102193.91
2023-02-05T18:21:47.219Z,102187.03
2023-02-05T18:31:48.501Z,102211.13
2023-02-05T18:41:49.881Z,102234.91
2023-02-05T18:51:51.196Z,102256.44
2023-02-05T19:01:54.609Z,102251.06
2023-02-05T19:11:56.757Z,102265.91
2023-02-05T19:22:02.804Z,102286.47
2023-02-05T19:32:05.978Z,102284.00
2023-02-05T19:42:08.263Z,102290.06
2023-02-05T19:52:09.637Z,102295.00
2023-02-05T20:02:10.874Z,102309.50
2023-02-05T20:12:13.087Z,102300.41
2023-02-05T20:22:14.456Z,102310.59
2023-02-05T20:32:15.702Z,102313.25
2023-02-05T20:42:17.036Z,102304.25
2023-02-05T20:52:18.332Z,102329.97
2023-02-05T21:02:20.969Z,102343.81
2023-02-05T21:12:27.842Z,102354.81
2023-02-05T21:22:29.200Z,102369.34
2023-02-05T21:32:30.659Z,102395.25
2023-02-05T21:42:31.974Z,102409.84
2023-02-05T21:52:33.398Z,102424.97
2023-02-05T22:02:34.673Z,102429.75
2023-02-05T22:12:35.937Z,102443.53
2023-02-05T22:22:37.180Z,102457.84
2023-02-05T22:32:38.490Z,102456.22
2023-02-05T22:42:39.812Z,102483.00
2023-02-05T22:52:41.063Z,102486.00
2023-02-05T23:02:42.325Z,102497.34
2023-02-05T23:12:43.576Z,102515.66
2023-02-05T23:22:44.856Z,102516.53
2023-02-05T23:32:46.186Z,102520.97
2023-02-05T23:42:47.437Z,102523.56
2023-02-05T23:52:48.794Z,102536.59
